Time;durP1;ratioP1;P1;durP2;ratioP2;P2;SDS_P1;SDS_P2;PMS_P1;PMS_P2;Temp;Humidity;BMP_temperature;BMP_pressure;BME280_temperature;BME280_humidity;BME280_pressure;Samples;Min_cycle;Max_cycle;Signal;HPM_P1;HPM_P2
2021/05/03 00:01:03;;;;;;;9.57;5.77;;;8.10;74.80;;;;;;5111561;28;20408;-76
2021/05/03 00:03:28;;;;;;;9.20;5.70;;;8.10;74.80;;;;;;5111421;28;20202;-77
2021/05/03 00:05:57;;;;;;;9.60;5.07;;;8.00;75.20;;;;;;5094447;28;20663;-77
2021/05/03 00:08:24;;;;;;;8.50;5.20;;;8.00;75.20;;;;;;5110557;28;20191;-76
2021/05/03 00:10:50;;;;;;;9.30;5.57;;;8.10;75.20;;;;;;5112612;28;20424;-77
2021/05/03 00:13:16;;;;;;;8.33;4.83;;;8.10;75.10;;;;;;5110316;28;20472;-76
2021/05/03 00:15:42;;;;;;;10.43;5.43;;;8.10;75.40;;;;;;5112066;28;20426;-77
2021/05/03 00:18:08;;;;;;;8.60;5.67;;;8.10;75.80;;;;;;5106597;28;20180;-76
2021/05/03 00:20:34;;;;;;;6.37;4.53;;;8.00;76.40;;;;;;5092008;28;20808;-77
2021/05/03 00:22:59;;;;;;;7.43;4.80;;;7.80;77.30;;;;;;5104948;28;20207;-77
2021/05/03 00:25:25;;;;;;;6.60;4.50;;;7.80;77.80;;;;;;5105321;28;20449;-78
2021/05/03 00:27:51;;;;;;;11.80;4.60;;;7.70;78.00;;;;;;5106559;28;20931;-75
2021/05/03 00:30:17;;;;;;;8.30;4.60;;;7.60;78.40;;;;;;5103655;28;20187;-77
2021/05/03 00:32:44;;;;;;;7.70;4.73;;;7.50;79.00;;;;;;5111055;28;20236;-77
2021/05/03 00:35:11;;;;;;;10.43;4.67;;;7.40;79.30;;;;;;5104206;28;20913;-75
2021/05/03 00:37:37;;;;;;;6.90;4.10;;;7.40;79.90;;;;;;5100159;28;20413;-74
2021/05/03 00:40:04;;;;;;;8.77;5.07;;;7.30;79.70;;;;;;5109056;28;20476;-78
2021/05/03 00:42:29;;;;;;;9.00;5.50;;;7.20;80.00;;;;;;5103682;28;20246;-76
2021/05/03 00:44:55;;;;;;;9.93;4.70;;;7.20;80.60;;;;;;5107804;28;20447;-76
2021/05/03 00:47:22;;;;;;;9.23;5.00;;;7.10;80.80;;;;;;5104561;28;20272;-76
2021/05/03 00:49:48;;;;;;;7.03;5.07;;;7.10;80.80;;;;;;5109305;28;20185;-77
2021/05/03 00:52:13;;;;;;;8.73;4.70;;;7.10;81.10;;;;;;5097560;28;20444;-79
2021/05/03 00:54:40;;;;;;;6.80;4.70;;;7.10;81.10;;;;;;5110585;28;20532;-76
2021/05/03 00:57:07;;;;;;;12.07;5.80;;;7.20;81.20;;;;;;5111718;28;20228;-76
2021/05/03 00:59:33;;;;;;;8.83;5.47;;;7.20;81.40;;;;;;5095713;28;20424;-75
2021/05/03 01:01:59;;;;;;;9.20;5.17;;;7.20;81.20;;;;;;5098038;28;20436;-77
2021/05/03 01:04:25;;;;;;;10.63;6.40;;;7.30;80.90;;;;;;5111072;28;20800;-76
2021/05/03 01:06:51;;;;;;;7.80;5.00;;;7.30;80.30;;;;;;5097970;28;20432;-77
2021/05/03 01:09:18;;;;;;;7.93;5.30;;;7.20;80.80;;;;;;5110509;28;20187;-77
2021/05/03 01:11:44;;;;;;;9.00;5.47;;;7.30;80.80;;;;;;5110313;28;20224;-77
2021/05/03 01:14:10;;;;;;;13.03;6.37;;;7.30;80.30;;;;;;5112691;28;20458;-76
2021/05/03 01:16:36;;;;;;;9.07;5.30;;;7.30;80.30;;;;;;5112659;28;20417;-79
2021/05/03 01:19:02;;;;;;;11.70;5.43;;;7.20;80.80;;;;;;5112853;28;20512;-77
2021/05/03 01:21:29;;;;;;;12.70;5.90;;;7.20;81.40;;;;;;5112974;28;20521;-78
2021/05/03 01:23:55;;;;;;;10.33;6.47;;;7.20;81.10;;;;;;5112010;28;20798;-77
2021/05/03 01:26:21;;;;;;;11.73;6.20;;;7.30;80.80;;;;;;5112967;28;20455;-78
2021/05/03 01:28:47;;;;;;;10.40;6.07;;;7.30;80.60;;;;;;5096626;28;20437;-77
2021/05/03 01:31:14;;;;;;;10.40;6.53;;;7.20;80.90;;;;;;5100387;28;20435;-76
2021/05/03 01:33:40;;;;;;;8.90;5.90;;;7.20;81.20;;;;;;5112590;28;20285;-77
2021/05/03 01:36:06;;;;;;;15.27;7.33;;;7.20;80.90;;;;;;5117359;28;20916;-76
2021/05/03 01:38:31;;;;;;;11.97;6.90;;;7.20;81.20;;;;;;5117534;28;20412;-78
2021/05/03 01:40:57;;;;;;;10.47;6.57;;;7.20;81.10;;;;;;5121866;28;20504;-77
2021/05/03 01:43:26;;;;;;;13.30;6.10;;;7.10;81.40;;;;;;5103042;28;20222;-76
2021/05/03 01:45:58;;;;;;;11.80;6.73;;;7.10;81.90;;;;;;5103218;28;20914;-76
2021/05/03 01:48:31;;;;;;;11.77;7.37;;;7.00;82.20;;;;;;5099980;28;20494;-75
2021/05/03 01:50:58;;;;;;;11.87;6.73;;;7.00;82.50;;;;;;5115477;28;20416;-77
2021/05/03 01:53:25;;;;;;;12.13;7.40;;;7.00;82.70;;;;;;5111321;28;20514;-75
2021/05/03 01:55:56;;;;;;;16.53;6.83;;;7.00;82.80;;;;;;5110726;28;20428;-77
2021/05/03 01:58:23;;;;;;;13.67;7.20;;;7.00;82.80;;;;;;5098692;28;20428;-77
2021/05/03 02:00:50;;;;;;;11.07;6.90;;;7.00;83.10;;;;;;5105536;28;20436;-77
2021/05/03 02:03:24;;;;;;;13.20;7.00;;;7.00;83.30;;;;;;5105274;28;20435;-76
2021/05/03 02:05:50;;;;;;;8.83;5.90;;;7.00;83.30;;;;;;5106668;28;20495;-76
2021/05/03 02:08:17;;;;;;;14.17;7.63;;;7.00;83.60;;;;;;5122061;28;20476;-77
2021/05/03 02:10:43;;;;;;;13.60;7.07;;;7.00;83.70;;;;;;5110359;28;20437;-76
2021/05/03 02:13:09;;;;;;;14.20;7.50;;;6.90;84.00;;;;;;5111351;28;20468;-77
2021/05/03 02:15:36;;;;;;;12.50;6.47;;;6.90;84.30;;;;;;5109741;28;20424;-76
2021/05/03 02:18:02;;;;;;;13.20;8.00;;;6.90;84.60;;;;;;5112153;28;20416;-77
2021/05/03 02:20:28;;;;;;;12.83;7.40;;;6.80;84.70;;;;;;5095251;28;20762;-75
2021/05/03 02:22:54;;;;;;;13.93;7.70;;;6.80;85.00;;;;;;5114210;28;20457;-74
2021/05/03 02:25:20;;;;;;;12.70;7.50;;;6.80;85.20;;;;;;5126195;28;20409;-76
2021/05/03 02:27:46;;;;;;;13.60;7.53;;;6.80;85.00;;;;;;5112585;28;20444;-74
2021/05/03 02:30:13;;;;;;;14.53;7.67;;;6.80;85.00;;;;;;5125822;28;21291;-77
2021/05/03 02:32:41;;;;;;;17.03;8.57;;;6.70;85.30;;;;;;5128006;28;20490;-77
2021/05/03 02:35:09;;;;;;;13.57;7.80;;;6.70;85.50;;;;;;5128188;28;20463;-75
2021/05/03 02:37:36;;;;;;;14.80;7.73;;;6.60;85.70;;;;;;5111578;28;20444;-77
2021/05/03 02:40:03;;;;;;;14.70;8.40;;;6.60;85.70;;;;;;5126388;28;20416;-76
2021/05/03 02:42:28;;;;;;;16.10;6.90;;;6.50;86.20;;;;;;5125579;28;20463;-76
2021/05/03 02:44:54;;;;;;;13.50;7.67;;;6.50;86.20;;;;;;5107532;28;20421;-77
2021/05/03 02:47:20;;;;;;;13.77;8.63;;;6.40;86.30;;;;;;5108969;28;20258;-78
2021/05/03 02:49:46;;;;;;;16.60;8.57;;;6.30;86.60;;;;;;5125224;28;20187;-76
2021/05/03 02:52:11;;;;;;;15.00;8.40;;;6.30;86.90;;;;;;5126212;28;20257;-77
2021/05/03 02:54:37;;;;;;;13.93;7.93;;;6.20;87.10;;;;;;5126624;27;20207;-77
2021/05/03 02:57:03;;;;;;;14.63;8.17;;;6.10;87.60;;;;;;5122341;28;20236;-77
2021/05/03 02:59:29;;;;;;;16.10;8.73;;;6.10;88.00;;;;;;5112894;28;20178;-78
2021/05/03 03:01:55;;;;;;;15.20;8.20;;;6.10;88.30;;;;;;5124346;28;20527;-78
2021/05/03 03:04:20;;;;;;;15.83;8.90;;;6.00;88.90;;;;;;5126246;28;20225;-76
2021/05/03 03:06:46;;;;;;;17.13;7.73;;;6.00;89.20;;;;;;5125530;28;20816;-77
2021/05/03 03:09:12;;;;;;;16.60;9.60;;;6.00;89.20;;;;;;5125085;28;20190;-77
2021/05/03 03:11:38;;;;;;;16.83;8.50;;;6.00;89.20;;;;;;5124891;28;20263;-76
2021/05/03 03:14:04;;;;;;;18.20;11.10;;;6.00;89.20;;;;;;5123533;28;20460;-76
2021/05/03 03:16:31;;;;;;;16.90;8.80;;;6.00;89.60;;;;;;5122590;28;20428;-76
2021/05/03 03:18:58;;;;;;;17.17;8.93;;;6.00;89.30;;;;;;5124568;28;20182;-77
2021/05/03 03:21:25;;;;;;;13.90;8.47;;;6.10;89.20;;;;;;5134218;28;20440;-77
2021/05/03 03:23:51;;;;;;;16.73;8.10;;;6.10;88.90;;;;;;5127741;28;20435;-77
2021/05/03 03:26:17;;;;;;;15.13;8.30;;;6.10;88.90;;;;;;5129056;28;20428;-77
2021/05/03 03:28:42;;;;;;;16.27;8.50;;;6.10;88.70;;;;;;5127076;28;20447;-76
2021/05/03 03:31:09;;;;;;;15.53;8.83;;;6.10;88.40;;;;;;5126338;28;20448;-78
2021/05/03 03:33:35;;;;;;;18.17;8.63;;;6.10;87.80;;;;;;5127429;28;20239;-77
2021/05/03 03:36:00;;;;;;;16.00;8.50;;;6.10;87.30;;;;;;5126973;28;20432;-77
2021/05/03 03:38:26;;;;;;;18.20;9.10;;;6.00;87.30;;;;;;5127647;28;20487;-76
2021/05/03 03:40:52;;;;;;;15.83;8.10;;;6.00;87.60;;;;;;5127523;28;20182;-75
2021/05/03 03:43:18;;;;;;;13.93;8.20;;;6.00;88.00;;;;;;5126919;28;20705;-76
2021/05/03 03:45:44;;;;;;;17.30;9.57;;;6.00;88.60;;;;;;5124162;28;20186;-76
2021/05/03 03:48:09;;;;;;;17.40;9.13;;;6.00;88.60;;;;;;5123959;28;20904;-74
2021/05/03 03:50:35;;;;;;;14.00;8.90;;;6.00;88.70;;;;;;5122299;28;20201;-77
2021/05/03 03:53:02;;;;;;;15.43;8.50;;;6.00;88.90;;;;;;5122795;28;20258;-75
2021/05/03 03:55:27;;;;;;;17.30;9.30;;;6.00;89.00;;;;;;5124176;28;20416;-76
2021/05/03 03:57:54;;;;;;;15.07;9.53;;;6.00;89.60;;;;;;5124096;28;20451;-77
2021/05/03 04:00:20;;;;;;;17.40;10.20;;;6.00;89.60;;;;;;5122609;28;20188;-78
2021/05/03 04:02:47;;;;;;;20.67;11.30;;;6.00;89.20;;;;;;5115569;28;20436;-76
2021/05/03 04:07:49;;;;;;;22.50;11.93;;;6.00;89.20;;;;;;5112486;28;20426;-77
2021/05/03 04:21:17;;;;;;;17.30;9.43;;;5.80;89.70;;;;;;5112510;28;20482;-77
2021/05/03 04:26:43;;;;;;;21.47;11.20;;;5.70;90.20;;;;;;5037067;28;20422;-79
2021/05/03 04:29:09;;;;;;;19.23;10.73;;;5.70;90.40;;;;;;5094532;28;20452;-76
2021/05/03 04:31:34;;;;;;;19.70;10.40;;;5.70;90.40;;;;;;5115555;28;20729;-77
2021/05/03 04:34:00;;;;;;;19.47;10.57;;;5.70;90.50;;;;;;5113072;28;20217;-78
2021/05/03 04:36:26;;;;;;;17.63;9.70;;;5.70;90.60;;;;;;5114493;28;20619;-76
2021/05/03 04:38:52;;;;;;;17.90;10.10;;;5.70;90.60;;;;;;5114374;28;20187;-75
2021/05/03 04:41:17;;;;;;;15.13;9.13;;;5.70;90.70;;;;;;5115856;28;20476;-75
2021/05/03 04:43:43;;;;;;;18.07;9.80;;;5.70;90.70;;;;;;5114163;28;20662;-76
2021/05/03 04:46:09;;;;;;;17.70;9.33;;;5.70;90.80;;;;;;5111435;28;20187;-77
2021/05/03 04:48:35;;;;;;;16.93;9.70;;;5.70;90.70;;;;;;5111465;28;20252;-77
2021/05/03 04:51:01;;;;;;;20.90;10.40;;;5.80;90.50;;;;;;5110234;28;20470;-78
2021/05/03 04:53:27;;;;;;;18.60;9.80;;;5.80;90.50;;;;;;5111625;28;20214;-76
2021/05/03 04:55:53;;;;;;;18.20;10.47;;;5.80;90.60;;;;;;5106177;28;21136;-79
2021/05/03 04:58:18;;;;;;;23.23;10.23;;;5.80;90.80;;;;;;5109566;28;20516;-79
2021/05/03 05:00:44;;;;;;;15.30;9.63;;;5.70;91.00;;;;;;5111806;28;20175;-77
2021/05/03 05:03:10;;;;;;;17.20;10.00;;;5.60;91.10;;;;;;5109993;28;20213;-76
2021/05/03 05:05:35;;;;;;;17.63;9.80;;;5.60;91.40;;;;;;5111717;28;20184;-76
2021/05/03 05:08:02;;;;;;;24.10;12.03;;;5.50;91.60;;;;;;5112017;28;20255;-77
2021/05/03 05:10:27;;;;;;;21.10;10.00;;;5.60;91.70;;;;;;5111642;28;20175;-77
2021/05/03 05:12:53;;;;;;;20.87;10.87;;;5.60;91.70;;;;;;5099088;28;20437;-77
2021/05/03 05:15:19;;;;;;;23.00;11.47;;;5.60;91.70;;;;;;5112897;28;20215;-76
2021/05/03 05:17:49;;;;;;;24.57;11.13;;;5.60;91.60;;;;;;5114946;28;20638;-76
2021/05/03 05:20:16;;;;;;;25.13;11.40;;;5.70;91.60;;;;;;5114507;28;20424;-76
2021/05/03 05:22:42;;;;;;;21.90;11.17;;;5.70;91.50;;;;;;5113192;28;20501;-77
2021/05/03 05:25:08;;;;;;;22.47;10.60;;;5.80;91.30;;;;;;5117785;28;20912;-79
2021/05/03 05:27:35;;;;;;;27.87;10.63;;;5.80;91.00;;;;;;5102405;28;20220;-76
2021/05/03 05:30:01;;;;;;;26.83;12.47;;;5.80;91.10;;;;;;5118148;28;20443;-76
2021/05/03 05:32:28;;;;;;;19.80;11.57;;;5.80;91.20;;;;;;5098561;28;20444;-77
2021/05/03 05:34:54;;;;;;;21.80;11.10;;;5.90;91.30;;;;;;5115834;28;20456;-77
2021/05/03 05:37:19;;;;;;;23.80;11.70;;;6.10;90.70;;;;;;5112117;28;20958;-76
2021/05/03 05:39:45;;;;;;;19.50;10.37;;;6.30;90.00;;;;;;5109915;28;20175;-77
2021/05/03 05:42:11;;;;;;;16.10;10.27;;;6.40;88.90;;;;;;5111060;28;20432;-75
2021/05/03 05:44:37;;;;;;;16.70;9.53;;;6.40;88.10;;;;;;5102944;28;20328;-76
2021/05/03 05:47:02;;;;;;;18.57;10.37;;;6.50;87.10;;;;;;5112181;28;20235;-77
2021/05/03 05:49:28;;;;;;;22.60;11.17;;;6.50;86.20;;;;;;5103217;28;20206;-76
2021/05/03 05:51:54;;;;;;;17.67;10.07;;;6.50;86.20;;;;;;5097439;28;20252;-75
2021/05/03 05:54:20;;;;;;;18.87;10.30;;;6.60;86.00;;;;;;5110662;28;20599;-75
2021/05/03 05:56:45;;;;;;;21.27;10.27;;;6.70;85.00;;;;;;5110218;28;20190;-77
2021/05/03 05:59:11;;;;;;;18.90;10.47;;;6.70;83.80;;;;;;5112575;28;20171;-78
2021/05/03 06:01:37;;;;;;;17.60;10.90;;;6.70;84.30;;;;;;5114257;28;20205;-76
2021/05/03 06:04:03;;;;;;;22.30;10.80;;;6.70;84.90;;;;;;5103769;28;20210;-78
2021/05/03 06:06:29;;;;;;;19.20;10.80;;;6.80;84.70;;;;;;5106700;28;20222;-76
2021/05/03 06:08:54;;;;;;;17.27;9.30;;;6.90;83.70;;;;;;5094263;28;20433;-78
2021/05/03 06:11:20;;;;;;;20.27;9.77;;;7.00;82.70;;;;;;5107159;28;20198;-76
2021/05/03 06:13:46;;;;;;;18.83;9.20;;;7.10;81.20;;;;;;5106797;28;20670;-74
2021/05/03 06:16:12;;;;;;;16.80;9.80;;;7.10;80.30;;;;;;5097487;28;20179;-77
2021/05/03 06:18:38;;;;;;;17.73;9.13;;;7.10;79.60;;;;;;5106596;28;20416;-78
2021/05/03 06:21:03;;;;;;;15.43;8.77;;;7.30;79.20;;;;;;5113514;28;20185;-76
2021/05/03 06:23:29;;;;;;;14.93;9.00;;;7.30;77.70;;;;;;5114407;28;20436;-77
2021/05/03 06:25:55;;;;;;;14.93;8.73;;;7.30;77.30;;;;;;5113345;28;20420;-77
2021/05/03 06:28:22;;;;;;;15.93;8.20;;;7.30;77.00;;;;;;5113902;28;20195;-77
2021/05/03 06:30:54;;;;;;;15.07;9.07;;;7.40;77.10;;;;;;5113842;28;20185;-70
2021/05/03 06:33:19;;;;;;;14.30;8.60;;;7.50;76.20;;;;;;5111947;27;20501;-71
2021/05/03 06:35:46;;;;;;;16.07;9.10;;;7.50;75.80;;;;;;5103299;28;20453;-70
2021/05/03 06:38:12;;;;;;;15.50;9.03;;;7.60;75.70;;;;;;5091842;28;20449;-71
2021/05/03 06:40:38;;;;;;;16.10;9.20;;;7.70;76.20;;;;;;5091804;28;20944;-71
2021/05/03 06:43:03;;;;;;;17.53;9.20;;;7.80;76.20;;;;;;5091255;28;20620;-70
2021/05/03 06:45:32;;;;;;;17.70;10.87;;;8.00;75.50;;;;;;5091692;28;20417;-70
2021/05/03 06:47:59;;;;;;;17.10;8.70;;;8.00;75.80;;;;;;5108162;28;20598;-69
2021/05/03 06:50:24;;;;;;;13.47;8.27;;;8.20;74.80;;;;;;5111543;28;20507;-71
2021/05/03 06:52:51;;;;;;;17.83;9.43;;;8.30;74.00;;;;;;5112029;28;20444;-70
2021/05/03 06:55:17;;;;;;;13.63;8.50;;;8.40;73.70;;;;;;5102055;28;20211;-72
2021/05/03 06:57:43;;;;;;;13.80;8.77;;;8.40;74.00;;;;;;5093919;28;20978;-69
2021/05/03 07:00:11;;;;;;;16.77;9.40;;;8.60;72.30;;;;;;5101886;28;20183;-70
2021/05/03 07:02:38;;;;;;;16.37;9.20;;;8.60;72.40;;;;;;5090264;28;20219;-70
2021/05/03 07:05:04;;;;;;;16.97;9.00;;;8.60;72.10;;;;;;5100087;28;20444;-75
2021/05/03 07:07:30;;;;;;;14.93;8.73;;;8.60;71.60;;;;;;5113669;28;20943;-75
2021/05/03 07:09:56;;;;;;;15.30;8.77;;;8.70;71.60;;;;;;5112897;28;20431;-76
2021/05/03 07:12:23;;;;;;;14.03;8.50;;;8.90;70.70;;;;;;5099334;27;20210;-75
2021/05/03 07:14:50;;;;;;;13.13;7.63;;;9.10;70.10;;;;;;5113315;28;20463;-75
2021/05/03 07:17:16;;;;;;;18.33;8.87;;;9.20;69.50;;;;;;5112560;27;20424;-75
2021/05/03 07:19:42;;;;;;;12.83;7.90;;;9.30;69.20;;;;;;5111946;28;20416;-75
2021/05/03 07:22:09;;;;;;;12.50;7.80;;;9.40;68.90;;;;;;5108049;28;21030;-75
2021/05/03 07:24:36;;;;;;;13.40;8.30;;;9.50;68.30;;;;;;5099376;28;20512;-74
2021/05/03 07:27:02;;;;;;;14.63;8.80;;;9.60;67.90;;;;;;5110786;28;20788;-77
2021/05/03 07:29:28;;;;;;;14.07;8.20;;;9.60;67.20;;;;;;5113625;28;20444;-75
2021/05/03 07:31:54;;;;;;;14.27;8.47;;;9.60;67.50;;;;;;5110206;28;20466;-76
2021/05/03 07:34:20;;;;;;;15.47;8.20;;;9.70;67.30;;;;;;5100889;28;20294;-75
2021/05/03 07:36:45;;;;;;;14.67;8.70;;;9.80;67.50;;;;;;5109590;28;20178;-75
2021/05/03 07:39:12;;;;;;;15.27;9.30;;;9.90;66.90;;;;;;5112219;28;20955;-74
2021/05/03 07:41:40;;;;;;;13.93;8.33;;;10.00;66.60;;;;;;5095276;28;20203;-75
2021/05/03 07:44:06;;;;;;;17.60;9.57;;;10.10;67.60;;;;;;5102605;28;20451;-75
2021/05/03 07:46:32;;;;;;;17.67;9.40;;;10.30;67.60;;;;;;5098231;28;20729;-76
2021/05/03 07:48:59;;;;;;;20.03;9.33;;;10.30;67.50;;;;;;5105589;28;20428;-76
2021/05/03 07:51:25;;;;;;;15.63;9.90;;;10.40;67.50;;;;;;5111835;28;20646;-75
2021/05/03 07:53:52;;;;;;;18.83;10.77;;;10.40;67.20;;;;;;5101106;28;20469;-76
2021/05/03 07:56:19;;;;;;;15.03;9.87;;;10.40;66.90;;;;;;5108953;28;20417;-74
2021/05/03 07:58:46;;;;;;;13.70;9.33;;;10.40;67.00;;;;;;5111646;28;20808;-78
2021/05/03 08:01:13;;;;;;;18.00;10.10;;;10.40;68.00;;;;;;5096422;28;20775;-75
2021/05/03 08:03:40;;;;;;;16.60;9.57;;;10.60;66.90;;;;;;5103594;28;20813;-75
2021/05/03 08:06:08;;;;;;;13.80;9.13;;;10.60;66.00;;;;;;5097840;28;20445;-77
2021/05/03 08:08:34;;;;;;;14.97;9.47;;;10.70;64.40;;;;;;5100495;28;20470;-75
2021/05/03 08:10:59;;;;;;;17.47;9.03;;;10.70;65.10;;;;;;5110304;28;20424;-74
2021/05/03 08:13:29;;;;;;;16.03;9.60;;;10.80;66.00;;;;;;5111742;28;20456;-77
2021/05/03 08:15:57;;;;;;;16.80;9.90;;;10.80;66.70;;;;;;5108851;28;20187;-75
2021/05/03 08:18:23;;;;;;;15.87;10.13;;;10.70;65.80;;;;;;5099301;28;20449;-75
2021/05/03 08:20:49;;;;;;;17.77;10.37;;;10.60;66.30;;;;;;5108973;28;20970;-76
2021/05/03 08:23:19;;;;;;;16.00;10.10;;;10.60;66.90;;;;;;5111213;28;20203;-75
2021/05/03 08:25:48;;;;;;;17.80;9.80;;;10.40;66.10;;;;;;5111998;28;20443;-74
2021/05/03 08:28:14;;;;;;;14.77;9.57;;;10.40;66.70;;;;;;5112070;28;20506;-75
2021/05/03 08:30:40;;;;;;;14.87;9.57;;;10.50;66.90;;;;;;5112654;28;20804;-76
2021/05/03 08:33:06;;;;;;;18.67;9.73;;;10.60;66.30;;;;;;5115026;28;20481;-75
2021/05/03 08:35:32;;;;;;;19.23;8.87;;;10.70;65.30;;;;;;5114313;28;20408;-75
2021/05/03 08:37:57;;;;;;;18.20;9.67;;;10.80;63.80;;;;;;5120222;28;20178;-76
2021/05/03 08:40:23;;;;;;;14.67;9.33;;;10.90;63.20;;;;;;5105340;28;20238;-75
2021/05/03 08:42:49;;;;;;;14.03;8.90;;;11.00;63.40;;;;;;5113445;27;20198;-75
2021/05/03 08:45:15;;;;;;;14.77;9.17;;;11.20;62.80;;;;;;5112252;28;20261;-76
2021/05/03 08:47:52;;;;;;;14.97;8.57;;;11.40;61.90;;;;;;5111159;28;20575;-74
2021/05/03 08:50:26;;;;;;;13.43;9.20;;;11.60;60.70;;;;;;5106667;28;20449;-74
2021/05/03 08:52:56;;;;;;;14.57;9.27;;;11.70;59.60;;;;;;5110380;28;20440;-74
2021/05/03 08:55:22;;;;;;;16.63;8.77;;;11.80;59.50;;;;;;5111522;28;20520;-76
2021/05/03 08:57:47;;;;;;;14.13;9.30;;;11.80;58.50;;;;;;5112222;28;20420;-75
2021/05/03 09:00:15;;;;;;;13.97;9.13;;;11.90;59.50;;;;;;5101845;28;21046;-75
2021/05/03 09:02:46;;;;;;;16.80;9.90;;;12.00;58.80;;;;;;5097045;28;20226;-75
2021/05/03 09:05:13;;;;;;;12.00;8.60;;;12.00;59.20;;;;;;5114549;28;21200;-75
2021/05/03 09:07:49;;;;;;;17.03;9.33;;;12.00;58.70;;;;;;5105918;28;20428;-77
2021/05/03 09:10:17;;;;;;;16.80;9.83;;;11.80;58.50;;;;;;5102779;28;20425;-75
2021/05/03 09:12:43;;;;;;;14.17;9.50;;;12.00;58.10;;;;;;5108515;28;20448;-76
2021/05/03 09:15:10;;;;;;;15.53;9.00;;;12.00;57.80;;;;;;5101177;28;21001;-75
2021/05/03 09:17:41;;;;;;;13.47;8.23;;;12.10;56.00;;;;;;5097744;28;20504;-75
2021/05/03 09:20:19;;;;;;;17.13;9.13;;;12.10;56.40;;;;;;5105670;28;20864;-76
2021/05/03 09:22:57;;;;;;;21.30;9.07;;;12.30;56.10;;;;;;5100107;28;20440;-75
2021/05/03 09:25:50;;;;;;;16.23;9.20;;;12.20;54.80;;;;;;5113312;28;20473;-75
2021/05/03 09:28:17;;;;;;;13.20;8.60;;;12.10;55.20;;;;;;5112802;28;20428;-76
2021/05/03 09:30:44;;;;;;;15.03;8.57;;;12.10;56.20;;;;;;5113328;28;20516;-75
2021/05/03 09:33:16;;;;;;;16.90;9.33;;;12.20;56.40;;;;;;5102168;28;20524;-75
2021/05/03 09:35:51;;;;;;;12.70;8.37;;;12.10;56.40;;;;;;5115866;28;20423;-75
2021/05/03 09:38:45;;;;;;;13.40;7.73;;;12.30;56.50;;;;;;5132014;28;20425;-75
2021/05/03 09:41:13;;;;;;;12.87;6.83;;;12.50;53.80;;;;;;5116237;28;20409;-75
2021/05/03 09:43:51;;;;;;;16.00;6.50;;;12.70;52.60;;;;;;5130731;27;20523;-76
2021/05/03 09:46:37;;;;;;;14.30;7.77;;;12.70;51.60;;;;;;5100404;28;20776;-75
2021/05/03 09:49:16;;;;;;;11.27;6.97;;;12.70;51.70;;;;;;5100025;28;20442;-76
2021/05/03 09:51:48;;;;;;;8.27;6.07;;;12.90;52.20;;;;;;5115170;27;20478;-75
2021/05/03 09:54:27;;;;;;;9.37;5.80;;;12.90;46.90;;;;;;5100383;28;20472;-76
2021/05/03 09:57:02;;;;;;;9.43;5.50;;;12.80;46.90;;;;;;5094236;28;20449;-76
2021/05/03 09:59:41;;;;;;;14.93;5.43;;;12.80;46.50;;;;;;5106994;28;21088;-76
2021/05/03 10:02:11;;;;;;;10.37;5.97;;;13.00;46.10;;;;;;5094159;28;20465;-75
2021/05/03 10:04:45;;;;;;;7.07;5.37;;;12.80;45.00;;;;;;5106355;28;20442;-74
2021/05/03 10:07:11;;;;;;;7.80;5.17;;;12.40;45.80;;;;;;5093768;28;20417;-76
2021/05/03 10:09:36;;;;;;;9.33;5.67;;;12.40;45.70;;;;;;5094843;28;20793;-75
2021/05/03 10:12:02;;;;;;;11.93;6.87;;;12.50;47.90;;;;;;5094506;28;20222;-76
2021/05/03 10:14:29;;;;;;;8.97;6.30;;;12.70;50.70;;;;;;5100543;28;20234;-77
2021/05/03 10:16:56;;;;;;;8.80;5.50;;;12.90;47.10;;;;;;5113712;28;20991;-75
2021/05/03 10:19:24;;;;;;;8.17;5.50;;;13.00;44.70;;;;;;5093807;28;20424;-76
2021/05/03 10:21:49;;;;;;;27.90;7.73;;;13.20;45.90;;;;;;5094928;28;20436;-76
2021/05/03 10:24:18;;;;;;;10.90;5.70;;;12.90;43.80;;;;;;5103085;28;20428;-76
2021/05/03 10:26:46;;;;;;;8.10;5.27;;;12.80;44.90;;;;;;5113384;28;20627;-75
2021/05/03 10:29:40;;;;;;;7.27;4.70;;;12.70;45.90;;;;;;5113706;28;20432;-74
2021/05/03 10:32:27;;;;;;;10.40;5.67;;;12.90;45.10;;;;;;5113735;28;20451;-78
2021/05/03 10:34:54;;;;;;;8.90;4.80;;;13.40;43.90;;;;;;5112579;28;21052;-74
2021/05/03 10:37:29;;;;;;;6.40;4.73;;;13.30;42.60;;;;;;5112227;28;20527;-76
2021/05/03 10:39:56;;;;;;;7.00;4.47;;;13.20;41.50;;;;;;5103911;28;20596;-75
2021/05/03 10:42:22;;;;;;;6.67;4.63;;;13.20;42.20;;;;;;5112764;28;20448;-76
2021/05/03 10:47:58;;;;;;;7.93;5.23;;;13.20;44.30;;;;;;5094238;28;20187;-75
2021/05/03 10:50:45;;;;;;;8.43;5.77;;;13.10;45.10;;;;;;5102925;28;20430;-76
2021/05/03 10:53:46;;;;;;;8.57;5.27;;;13.10;46.10;;;;;;5099826;28;20478;-76
2021/05/03 10:56:11;;;;;;;8.20;4.60;;;12.80;44.30;;;;;;5101355;28;20429;-76
2021/05/03 10:58:55;;;;;;;12.97;5.43;;;12.90;44.90;;;;;;5106326;28;20793;-76
2021/05/03 11:01:21;;;;;;;7.90;4.87;;;12.90;45.00;;;;;;5113320;28;20420;-75
2021/05/03 11:03:58;;;;;;;5.50;4.50;;;12.90;44.20;;;;;;5112041;28;21003;-76
2021/05/03 11:06:36;;;;;;;12.03;5.23;;;13.20;43.20;;;;;;5102802;28;21041;-75
2021/05/03 11:09:39;;;;;;;7.50;5.10;;;13.80;42.30;;;;;;5098372;28;20424;-76
2021/05/03 11:12:14;;;;;;;6.00;4.50;;;14.30;41.80;;;;;;5107380;28;20464;-74
2021/05/03 11:14:41;;;;;;;7.83;4.70;;;14.20;41.20;;;;;;5108138;28;20482;-76
2021/05/03 11:17:13;;;;;;;6.73;4.50;;;14.20;40.80;;;;;;5113402;28;20807;-73
2021/05/03 11:22:49;;;;;;;9.67;5.00;;;14.10;39.90;;;;;;5101789;28;20453;-74
2021/05/03 11:25:25;;;;;;;7.70;4.20;;;14.30;40.30;;;;;;5096622;28;20506;-75
2021/05/03 11:30:32;;;;;;;6.10;4.63;;;13.70;40.20;;;;;;5116336;28;20428;-76
2021/05/03 11:33:23;;;;;;;6.13;3.90;;;13.60;41.10;;;;;;5115060;28;20931;-76
2021/05/03 11:35:54;;;;;;;7.20;4.40;;;13.90;41.20;;;;;;5105827;28;20421;-75
2021/05/03 11:38:36;;;;;;;4.90;3.70;;;14.10;40.30;;;;;;5111862;28;20428;-75
2021/05/03 11:44:10;;;;;;;5.07;3.73;;;14.20;39.10;;;;;;5100586;28;20535;-75
2021/05/03 11:46:37;;;;;;;5.77;3.43;;;14.30;38.60;;;;;;5114997;28;20624;-75
2021/05/03 11:49:12;;;;;;;5.33;4.00;;;14.40;37.60;;;;;;5114854;28;20416;-75
2021/05/03 11:51:51;;;;;;;6.50;4.87;;;14.70;37.90;;;;;;5101684;28;20471;-74
2021/05/03 11:54:32;;;;;;;4.40;3.63;;;14.60;37.10;;;;;;5102885;28;20460;-76
2021/05/03 11:57:04;;;;;;;6.20;3.60;;;14.50;36.30;;;;;;5117706;28;20493;-77
2021/05/03 11:59:34;;;;;;;7.37;3.43;;;14.60;36.20;;;;;;5117977;28;20900;-77
2021/05/03 12:02:08;;;;;;;7.73;3.40;;;14.50;36.00;;;;;;5115669;28;21197;-77
2021/05/03 12:04:44;;;;;;;6.37;4.30;;;14.60;36.80;;;;;;5117302;28;20973;-75
2021/05/03 12:07:29;;;;;;;6.27;2.77;;;14.70;36.20;;;;;;5114188;28;20424;-76
2021/05/03 12:10:30;;;;;;;5.27;3.70;;;15.00;35.70;;;;;;5122334;28;20421;-75
2021/05/03 12:12:57;;;;;;;4.70;3.73;;;15.50;34.90;;;;;;5013631;28;20838;-77
2021/05/03 12:15:22;;;;;;;5.20;3.40;;;15.20;34.30;;;;;;5030773;28;20478;-76
2021/05/03 12:17:50;;;;;;;4.80;3.90;;;14.90;34.90;;;;;;5030478;28;21139;-75
2021/05/03 12:20:24;;;;;;;4.87;3.27;;;14.90;35.30;;;;;;5019395;28;20276;-75
2021/05/03 12:23:12;;;;;;;5.30;3.40;;;15.00;35.10;;;;;;5023523;28;20451;-75
2021/05/03 12:25:51;;;;;;;3.37;3.13;;;15.30;34.30;;;;;;5018701;28;20519;-75
2021/05/03 12:28:22;;;;;;;4.97;3.20;;;15.50;34.00;;;;;;5000016;28;20577;-74
2021/05/03 12:30:49;;;;;;;3.37;2.70;;;15.60;33.50;;;;;;5018128;28;20424;-74
2021/05/03 12:33:18;;;;;;;3.60;3.20;;;15.50;33.90;;;;;;5026776;28;20523;-74
2021/05/03 12:35:49;;;;;;;3.40;2.90;;;15.20;34.30;;;;;;5001568;28;20932;-77
2021/05/03 12:38:25;;;;;;;4.37;3.10;;;14.90;35.30;;;;;;5026433;28;20428;-76
2021/05/03 12:40:52;;;;;;;4.70;2.93;;;14.60;35.50;;;;;;4995032;28;20491;-75
2021/05/03 12:43:37;;;;;;;7.97;3.77;;;14.60;36.30;;;;;;5027702;28;20444;-74
2021/05/03 12:48:45;;;;;;;5.43;3.53;;;14.80;35.10;;;;;;5029157;28;20949;-76
2021/05/03 12:56:50;;;;;;;4.60;3.10;;;14.70;35.10;;;;;;5116075;28;20415;-77
2021/05/03 12:59:24;;;;;;;5.97;3.23;;;14.50;36.00;;;;;;5117302;28;20507;-74
2021/05/03 13:02:06;;;;;;;5.17;2.70;;;14.50;36.00;;;;;;5098090;28;20425;-76
2021/05/03 13:04:54;;;;;;;7.10;3.23;;;14.50;35.70;;;;;;5105965;28;20409;-74
2021/05/03 13:25:17;;;;;;;5.40;3.50;;;15.30;35.20;;;;;;5101298;28;20950;-75
2021/05/03 13:29:59;;;;;;;15.90;4.97;;;15.00;34.90;;;;;;5098242;28;20486;-76
2021/05/03 13:32:28;;;;;;;7.37;3.30;;;15.10;35.20;;;;;;5092194;28;20464;-74
2021/05/03 13:34:54;;;;;;;9.03;3.50;;;15.50;34.40;;;;;;5092925;28;21055;-77
2021/05/03 13:37:21;;;;;;;6.83;3.17;;;15.70;33.60;;;;;;5099762;28;20916;-75
2021/05/03 13:39:47;;;;;;;6.80;3.43;;;15.80;33.50;;;;;;5095674;28;20483;-76
2021/05/03 13:42:14;;;;;;;4.33;3.40;;;15.80;33.50;;;;;;5104664;28;20468;-75
2021/05/03 13:44:41;;;;;;;9.20;3.20;;;15.70;33.90;;;;;;5108899;28;20464;-76
2021/05/03 13:47:07;;;;;;;4.97;2.83;;;15.80;33.90;;;;;;5099092;28;20439;-76
2021/05/03 13:49:34;;;;;;;4.20;3.37;;;15.50;32.80;;;;;;5097930;28;20428;-76